Melbourne, Victoria

12:40 AM AEST on September 20, 2014 (GMT +1000)
AO-SC3 | Change Station
CLOSE
Current Station
Personal Weather Station
Location: Melbourne, VICTORIA
Elevation: 23 ft
Nearby Weather Stations

Elev 23 ft 37.82 °S, 144.98 °E | Updated 10 minutes ago

Scattered Clouds
Scattered Clouds
52.6 °F
Feels Like 52.6 °F
N
0.0
Wind Variable Wind from ENE
Gusts 7.0 mph

Today
High -- | Low -- °F
--% Chance of Precip.
Yesterday
High -- | Low -- °F
Precip. -- in
6:13 AM 6:14 PM
Waning Crescent, 19% visible
Pressure 30.27 in
Visibility 6.2 miles
Clouds Few 2000 ft
Scattered Clouds 4700 ft
Dew Point 45 °F
Humidity 75%
Rainfall 0.00 in
Snow Depth Not available.
UV 0 out of 12
Pollen Not available.
Air Quality Not available.
Flu Activity Not available.
METAR YMML 191400Z 27007KT 9999 FEW020 SCT047 08/06 Q1025 NOSIG

More Conditions Fewer Conditions

Pressure 30.27 in
Visibility 6.2 miles
Clouds Few 2000 ft
Scattered Clouds 4700 ft
Dew Point 45 °F
Humidity 75%
Rainfall 0.00 in
Snow Depth Not available.
UV 0 out of 12
Pollen Not available.
Air Quality Not available.
Flu Activity Not available.
METAR YMML 191400Z 27007KT 9999 FEW020 SCT047 08/06 Q1025 NOSIG

More Conditions Fewer Conditions

10-Day Weather Forecast

Almanac

Astronomy

Sep. 20, 2014 Rise Set
Actual Time 6:13 AM AEST 6:14 PM AEST
Civil Twilight 5:47 AM AEST 6:40 PM AEST
Nautical Twilight 5:16 AM AEST 7:11 PM AEST
Astronomical Twilight 4:46 AM AEST 7:42 PM AEST
Moon 3:43 AM AEST (9/20) 2:39 PM AEST (9/20)
Length of Visible Light 12h 53m
Length of Day
12h 00m
Tomorrow will be 2m 25s longer.
Waning Crescent, 19% of the Moon is Illuminated
Sep 19
Waning Crescent
Sep 24
New
Oct 1
First Quarter
Oct 8
Full
Oct 15
Last Quarter

Yesterday's Extremes

Country Highs Country Lows

Community

WunderPhotos

Upload Photos

1,754,630 photos uploaded!

WunderBlogs® & News

Nearby

Snow Depth

Not available.

Earthquake Activity

City Distance Mag. Time & Date
No recent earthquake activity has been reported nearby.
Minimum magnitude displayed is 2.5.

Coastal Water Temperatures

Place Temperature
No Stations Reporting

Nearby Weather Stations